createdAt,value
2023-12-11T00:02:16.653Z,34.00
2023-12-11T00:04:43.948Z,45.88
2023-12-11T00:07:11.273Z,53.80
2023-12-11T00:09:38.544Z,53.97
2023-12-11T00:12:05.889Z,34.63
2023-12-11T00:14:33.095Z,39.72
2023-12-11T00:17:00.839Z,39.30
2023-12-11T00:19:28.014Z,30.63
2023-12-11T00:21:55.417Z,27.40
2023-12-11T00:24:22.653Z,44.08
2023-12-11T00:26:49.834Z,37.75
2023-12-11T00:29:16.695Z,46.15
2023-12-11T00:31:43.935Z,43.95
2023-12-11T00:34:11.340Z,47.50
2023-12-11T00:36:38.675Z,54.28
2023-12-11T00:39:05.500Z,42.40
2023-12-11T00:41:32.817Z,34.70
2023-12-11T00:44:00.048Z,50.30
2023-12-11T00:46:27.304Z,39.73
2023-12-11T00:48:54.765Z,47.10
2023-12-11T00:51:22.435Z,36.08
2023-12-11T00:53:49.782Z,36.05
2023-12-11T00:56:17.076Z,37.70
2023-12-11T00:58:44.722Z,31.40
2023-12-11T01:01:12.235Z,44.20
2023-12-11T01:03:40.033Z,49.03
2023-12-11T01:06:07.609Z,44.75
2023-12-11T01:08:39.654Z,38.08
2023-12-11T01:11:07.620Z,40.27
2023-12-11T01:13:34.880Z,29.10
2023-12-11T01:16:02.212Z,35.05
2023-12-11T01:18:30.039Z,34.05
2023-12-11T01:20:57.168Z,36.65
2023-12-11T01:23:24.440Z,30.47
2023-12-11T01:25:51.655Z,29.08
2023-12-11T01:28:19.742Z,39.60
2023-12-11T01:30:46.714Z,37.67
2023-12-11T01:33:13.629Z,28.55
2023-12-11T01:35:41.262Z,41.83
2023-12-11T01:38:08.583Z,44.15
2023-12-11T01:40:35.852Z,36.78
2023-12-11T01:43:17.784Z,29.27
2023-12-11T01:45:52.270Z,30.02
2023-12-11T01:48:19.679Z,37.60
2023-12-11T01:50:46.985Z,36.58
2023-12-11T01:53:14.352Z,32.58
2023-12-11T01:55:41.737Z,28.75
2023-12-11T01:58:09.277Z,31.38
2023-12-11T02:00:36.738Z,25.10
2023-12-11T02:03:04.129Z,33.67
2023-12-11T02:05:31.714Z,34.50
2023-12-11T02:07:59.914Z,23.25
2023-12-11T02:10:27.343Z,30.77
2023-12-11T02:12:54.756Z,32.47
2023-12-11T02:15:44.147Z,34.53
2023-12-11T02:18:12.901Z,41.97
2023-12-11T02:20:40.922Z,36.55
2023-12-11T02:23:41.938Z,29.13
2023-12-11T02:26:12.581Z,28.10
2023-12-11T02:28:39.830Z,37.45
2023-12-11T02:31:07.424Z,29.23
2023-12-11T02:33:35.124Z,42.90
2023-12-11T02:36:02.765Z,37.85
2023-12-11T02:38:30.052Z,35.47
2023-12-11T02:40:57.386Z,25.10
2023-12-11T02:43:24.733Z,32.65
2023-12-11T02:45:51.620Z,23.30
2023-12-11T02:48:19.589Z,34.67
2023-12-11T02:50:47.048Z,23.67
2023-12-11T02:53:13.866Z,28.55
2023-12-11T02:55:41.187Z,30.52
2023-12-11T02:58:08.690Z,26.50
2023-12-11T03:00:37.250Z,30.52
2023-12-11T03:03:05.102Z,27.23
2023-12-11T03:05:32.695Z,37.50
2023-12-11T03:07:59.912Z,20.65
2023-12-11T03:10:27.326Z,22.60
2023-12-11T03:12:54.595Z,34.28
2023-12-11T03:15:21.899Z,35.33
2023-12-11T03:17:48.892Z,27.45
2023-12-11T03:20:16.237Z,32.60
2023-12-11T03:22:43.716Z,28.98
2023-12-11T03:25:11.078Z,19.85
2023-12-11T03:27:38.378Z,34.57
2023-12-11T03:30:06.004Z,30.73
2023-12-11T03:32:33.172Z,35.75
2023-12-11T03:35:01.232Z,38.55
2023-12-11T03:37:28.363Z,39.42
2023-12-11T03:39:55.852Z,34.67
2023-12-11T03:42:23.201Z,24.85
2023-12-11T03:44:50.827Z,20.02
2023-12-11T03:47:18.706Z,30.67
2023-12-11T03:49:45.895Z,33.33
2023-12-11T03:52:13.312Z,30.07
2023-12-11T03:54:40.747Z,33.28
2023-12-11T03:57:08.037Z,25.42
2023-12-11T03:59:35.419Z,34.78
2023-12-11T04:02:02.896Z,32.78
2023-12-11T04:04:31.483Z,33.27
2023-12-11T04:06:58.851Z,35.63
2023-12-11T04:09:25.681Z,32.85
2023-12-11T04:11:52.880Z,33.78
2023-12-11T04:14:20.319Z,36.10
2023-12-11T04:16:47.336Z,29.87
2023-12-11T04:19:14.433Z,22.08
2023-12-11T04:21:42.052Z,38.78
2023-12-11T04:24:11.818Z,32.47
2023-12-11T04:26:40.510Z,24.98
2023-12-11T04:29:07.781Z,32.27
2023-12-11T04:31:35.032Z,28.85
2023-12-11T04:34:02.446Z,36.75
2023-12-11T04:36:29.871Z,27.45
2023-12-11T04:38:57.081Z,40.50
2023-12-11T04:41:24.335Z,31.27
2023-12-11T04:43:51.552Z,19.35
2023-12-11T04:46:18.923Z,38.67
2023-12-11T04:48:47.105Z,32.72
2023-12-11T04:51:14.857Z,31.92
2023-12-11T04:53:41.748Z,31.43
2023-12-11T04:56:09.730Z,28.02
2023-12-11T04:58:37.020Z,52.63
2023-12-11T05:01:04.449Z,30.85
2023-12-11T05:03:32.051Z,32.13
2023-12-11T05:05:59.395Z,31.03
2023-12-11T05:08:29.043Z,32.35
2023-12-11T05:10:57.611Z,23.92
2023-12-11T05:13:25.092Z,42.20
2023-12-11T05:15:52.539Z,32.92
2023-12-11T05:18:19.994Z,35.00
2023-12-11T05:20:47.393Z,28.75
2023-12-11T05:23:14.663Z,27.05
2023-12-11T05:25:41.914Z,31.55
2023-12-11T05:28:08.803Z,25.80
2023-12-11T05:30:36.140Z,44.17
2023-12-11T05:33:03.868Z,25.90
2023-12-11T05:35:31.172Z,27.60
2023-12-11T05:38:00.779Z,20.38
2023-12-11T05:40:28.081Z,27.95
2023-12-11T05:42:55.426Z,32.80
2023-12-11T05:45:22.700Z,28.33
2023-12-11T05:47:49.683Z,37.60
2023-12-11T05:50:16.853Z,23.65
2023-12-11T05:52:43.878Z,27.52
2023-12-11T05:55:11.305Z,25.50
2023-12-11T05:57:38.435Z,24.70
2023-12-11T06:00:06.754Z,22.40
2023-12-11T06:02:34.144Z,27.15
2023-12-11T06:05:01.497Z,36.42
2023-12-11T06:07:29.046Z,30.83
2023-12-11T06:09:56.635Z,35.22
2023-12-11T06:12:23.996Z,30.10
2023-12-11T06:14:50.802Z,31.70
2023-12-11T06:17:17.892Z,28.73
2023-12-11T06:19:45.388Z,15.97
2023-12-11T06:22:13.062Z,29.35
2023-12-11T06:24:41.385Z,24.83
2023-12-11T06:27:09.345Z,22.98
2023-12-11T06:29:37.209Z,21.80
2023-12-11T06:32:04.713Z,23.37
2023-12-11T06:34:32.256Z,25.63
2023-12-11T06:36:59.282Z,23.42
2023-12-11T06:39:28.076Z,27.55
2023-12-11T06:41:56.837Z,24.45
2023-12-11T06:44:24.996Z,15.10
2023-12-11T06:46:54.089Z,19.98
2023-12-11T06:49:21.791Z,23.92
2023-12-11T06:51:49.309Z,23.42
2023-12-11T06:54:16.645Z,27.67
2023-12-11T06:56:44.004Z,14.97
2023-12-11T06:59:11.254Z,15.93
2023-12-11T07:01:39.023Z,26.77
2023-12-11T07:04:07.008Z,16.63
2023-12-11T07:06:34.507Z,16.58
2023-12-11T07:09:01.908Z,22.10
2023-12-11T07:11:29.187Z,14.43
2023-12-11T07:13:56.825Z,21.75
2023-12-11T07:16:27.293Z,13.15
2023-12-11T07:18:54.827Z,11.93
2023-12-11T07:21:22.511Z,17.00
2023-12-11T07:23:51.256Z,20.02
2023-12-11T07:26:18.575Z,14.00
2023-12-11T07:28:45.883Z,10.52
2023-12-11T07:31:13.316Z,16.88
2023-12-11T07:33:40.824Z,18.37
2023-12-11T07:36:08.354Z,10.05
2023-12-11T07:38:35.618Z,18.63
2023-12-11T07:41:05.434Z,16.63
2023-12-11T07:43:34.386Z,12.00
2023-12-11T07:46:02.300Z,17.77
2023-12-11T07:48:30.393Z,10.98
2023-12-11T07:50:57.939Z,13.40
2023-12-11T07:53:25.229Z,13.10
2023-12-11T07:55:52.523Z,18.25
2023-12-11T07:58:19.870Z,11.67
2023-12-11T08:00:47.339Z,11.32
2023-12-11T08:03:14.772Z,14.70
2023-12-11T08:05:42.191Z,13.15
2023-12-11T08:08:09.850Z,10.02
2023-12-11T08:10:37.331Z,9.93
2023-12-11T08:13:04.747Z,10.50
2023-12-11T08:15:32.052Z,15.82
2023-12-11T08:17:59.334Z,8.60
2023-12-11T08:20:26.731Z,12.68
2023-12-11T08:22:54.035Z,12.27
2023-12-11T08:25:21.405Z,8.70
2023-12-11T08:27:48.703Z,10.25
2023-12-11T08:30:15.949Z,10.07
2023-12-11T08:32:43.366Z,8.88
2023-12-11T08:35:10.932Z,12.27
2023-12-11T08:37:38.661Z,15.80
2023-12-11T08:40:07.209Z,11.05
2023-12-11T08:42:39.290Z,12.02
2023-12-11T08:45:09.358Z,12.73
2023-12-11T08:47:39.412Z,10.60
2023-12-11T08:50:09.072Z,7.15
2023-12-11T08:52:37.895Z,8.40
2023-12-11T08:55:05.545Z,12.73
2023-12-11T08:57:34.410Z,16.90
2023-12-11T09:00:01.897Z,11.80
2023-12-11T09:02:29.141Z,11.80
2023-12-11T09:04:56.656Z,10.93
2023-12-11T09:07:24.027Z,13.93
2023-12-11T09:09:51.493Z,10.32
2023-12-11T09:12:28.085Z,15.63
2023-12-11T09:15:01.254Z,11.23
2023-12-11T09:17:29.598Z,11.88
2023-12-11T09:19:57.217Z,11.70
2023-12-11T09:22:24.897Z,9.52
2023-12-11T09:24:52.517Z,9.17
2023-12-11T09:27:19.890Z,13.30
2023-12-11T09:29:50.672Z,16.58
2023-12-11T09:32:18.646Z,14.70
2023-12-11T09:34:46.233Z,15.50
2023-12-11T09:37:13.602Z,11.30
2023-12-11T09:39:41.123Z,20.70
2023-12-11T09:42:09.263Z,15.25
2023-12-11T09:44:37.375Z,14.05
2023-12-11T09:47:21.036Z,12.18
2023-12-11T09:49:48.596Z,10.47
2023-12-11T09:52:16.122Z,12.50
2023-12-11T09:54:43.589Z,13.85
2023-12-11T09:57:15.977Z,19.67
2023-12-11T09:59:44.049Z,13.35
2023-12-11T10:02:18.010Z,13.30
2023-12-11T10:05:09.797Z,11.50
2023-12-11T10:07:41.836Z,14.75
2023-12-11T10:10:23.846Z,18.35
2023-12-11T10:12:51.387Z,12.85
2023-12-11T10:15:25.519Z,16.47
2023-12-11T10:18:03.571Z,14.63
2023-12-11T10:20:31.484Z,14.45
2023-12-11T10:23:03.201Z,19.77
2023-12-11T10:25:32.131Z,13.75
2023-12-11T10:28:16.569Z,18.63
2023-12-11T10:31:01.270Z,17.17
2023-12-11T10:33:33.141Z,17.73
2023-12-11T10:36:14.606Z,19.70
2023-12-11T10:38:43.487Z,18.75
2023-12-11T10:41:11.156Z,12.33
2023-12-11T10:43:56.591Z,15.15
2023-12-11T10:46:33.048Z,8.35
2023-12-11T10:49:01.655Z,11.48
2023-12-11T10:51:29.865Z,10.70
2023-12-11T10:53:59.109Z,12.13
2023-12-11T10:56:27.228Z,15.35
2023-12-11T10:58:54.800Z,14.60
2023-12-11T11:01:22.612Z,23.48
2023-12-11T11:03:50.858Z,10.57
2023-12-11T11:06:20.613Z,15.83
2023-12-11T11:09:00.791Z,8.88
2023-12-11T11:11:33.075Z,10.70
2023-12-11T11:14:13.730Z,9.57
2023-12-11T11:16:56.983Z,11.13
2023-12-11T11:19:25.650Z,15.43
2023-12-11T11:22:01.572Z,8.77
2023-12-11T11:24:29.899Z,8.85
2023-12-11T11:26:58.143Z,11.05
2023-12-11T11:29:43.356Z,11.45
2023-12-11T11:32:11.293Z,9.77
2023-12-11T11:34:41.244Z,8.98
2023-12-11T11:37:09.015Z,13.93
2023-12-11T11:40:04.779Z,12.55
2023-12-11T11:42:33.397Z,10.50
2023-12-11T11:45:02.330Z,11.73
2023-12-11T11:47:30.806Z,12.15
2023-12-11T11:50:14.338Z,13.27
2023-12-11T11:52:43.289Z,16.00
2023-12-11T11:55:22.180Z,16.45
2023-12-11T11:57:50.451Z,15.37
2023-12-11T12:00:29.285Z,10.90
2023-12-11T12:02:57.697Z,10.85
2023-12-11T12:05:25.089Z,11.73
2023-12-11T12:07:52.473Z,5.25
2023-12-11T12:10:20.280Z,13.40
2023-12-11T12:12:51.392Z,13.20
2023-12-11T12:15:20.616Z,8.95
2023-12-11T12:17:47.963Z,15.80
2023-12-11T12:20:18.097Z,11.93
2023-12-11T12:23:04.820Z,14.73
2023-12-11T12:25:32.553Z,17.88
2023-12-11T12:28:04.052Z,15.50
2023-12-11T12:30:32.006Z,12.35
2023-12-11T12:33:00.196Z,14.88
2023-12-11T12:35:28.211Z,17.17
2023-12-11T12:37:57.065Z,9.77
2023-12-11T12:40:24.563Z,16.77
2023-12-11T12:42:52.057Z,16.98
2023-12-11T12:45:34.290Z,11.82
2023-12-11T12:48:04.483Z,16.30
2023-12-11T12:50:32.116Z,9.10
2023-12-11T12:53:12.005Z,16.83
2023-12-11T12:55:42.381Z,10.30
2023-12-11T12:58:10.335Z,14.95
2023-12-11T13:00:38.493Z,9.13
2023-12-11T13:03:09.355Z,8.95
2023-12-11T13:05:46.932Z,13.73
2023-12-11T13:08:15.881Z,8.07
2023-12-11T13:10:57.000Z,12.43
2023-12-11T13:13:28.025Z,11.73
2023-12-11T13:15:56.503Z,7.93
2023-12-11T13:18:25.945Z,8.25
2023-12-11T13:20:53.424Z,7.57
2023-12-11T13:23:21.414Z,13.68
2023-12-11T13:25:48.960Z,10.77
2023-12-11T13:28:16.262Z,11.00
2023-12-11T13:30:43.752Z,11.27
2023-12-11T13:33:11.624Z,9.70
2023-12-11T13:35:38.965Z,11.52
2023-12-11T13:38:06.375Z,8.90
2023-12-11T13:40:33.687Z,11.20
2023-12-11T13:43:01.036Z,11.35
2023-12-11T13:45:28.775Z,13.35
2023-12-11T13:47:56.138Z,12.30
2023-12-11T13:50:23.565Z,8.00
2023-12-11T13:52:51.213Z,8.82
2023-12-11T13:55:18.945Z,10.68
2023-12-11T13:57:46.849Z,11.48
2023-12-11T14:00:16.544Z,12.27
2023-12-11T14:03:00.316Z,9.33
2023-12-11T14:05:32.259Z,13.23
2023-12-11T14:08:00.311Z,10.32
2023-12-11T14:10:28.404Z,22.25
2023-12-11T14:12:55.525Z,9.48
2023-12-11T14:15:22.350Z,10.17
2023-12-11T14:17:49.648Z,10.80
2023-12-11T14:20:17.462Z,11.10
2023-12-11T14:22:44.770Z,8.23
2023-12-11T14:25:13.148Z,9.52
2023-12-11T14:27:40.524Z,10.37
2023-12-11T14:30:08.255Z,19.70
2023-12-11T14:32:36.487Z,14.35
2023-12-11T14:35:04.091Z,13.25
2023-12-11T14:37:31.442Z,14.45
2023-12-11T14:39:58.842Z,11.43
2023-12-11T14:42:28.127Z,12.75
2023-12-11T14:44:55.874Z,19.30
2023-12-11T14:47:25.005Z,12.40
2023-12-11T14:49:52.727Z,15.48
2023-12-11T14:52:19.709Z,16.73
2023-12-11T14:54:47.018Z,14.73
2023-12-11T14:57:14.331Z,15.77
2023-12-11T14:59:41.768Z,15.40
2023-12-11T15:02:10.824Z,11.60
2023-12-11T15:04:38.165Z,11.37
2023-12-11T15:07:06.413Z,19.17
2023-12-11T15:09:35.867Z,18.52
2023-12-11T15:12:03.161Z,16.95
2023-12-11T15:14:32.523Z,10.60
2023-12-11T15:17:00.338Z,18.17
2023-12-11T15:19:28.238Z,16.40
2023-12-11T15:21:55.608Z,11.57
2023-12-11T15:24:22.897Z,13.85
2023-12-11T15:26:50.934Z,11.02
2023-12-11T15:29:18.368Z,14.43
2023-12-11T15:31:45.654Z,15.48
2023-12-11T15:34:13.125Z,14.20
2023-12-11T15:36:40.408Z,13.68
2023-12-11T15:39:09.210Z,13.43
2023-12-11T15:41:36.154Z,10.67
2023-12-11T15:44:05.310Z,13.75
2023-12-11T15:46:32.847Z,10.93
2023-12-11T15:49:01.256Z,10.80
2023-12-11T15:51:28.774Z,17.27
2023-12-11T15:53:56.065Z,20.20
2023-12-11T15:56:23.406Z,18.50
2023-12-11T15:58:50.876Z,17.60
2023-12-11T16:01:18.240Z,18.85
2023-12-11T16:03:45.684Z,21.95
2023-12-11T16:06:13.097Z,12.00
2023-12-11T16:08:40.368Z,26.90
2023-12-11T16:11:07.752Z,15.30
2023-12-11T16:13:35.590Z,17.30
2023-12-11T16:16:03.785Z,18.85
2023-12-11T16:18:30.734Z,21.93
2023-12-11T16:20:59.251Z,26.05
2023-12-11T16:23:26.741Z,33.00
2023-12-11T16:26:00.260Z,18.17
2023-12-11T16:28:32.686Z,18.50
2023-12-11T16:31:00.307Z,20.00
2023-12-11T16:33:28.126Z,16.73
2023-12-11T16:35:54.955Z,21.65
2023-12-11T16:38:23.335Z,21.23
2023-12-11T16:40:50.676Z,23.58
2023-12-11T16:43:19.037Z,13.43
2023-12-11T16:45:46.263Z,23.38
2023-12-11T16:48:13.953Z,19.13
2023-12-11T16:50:44.555Z,20.40
2023-12-11T16:53:11.559Z,20.45
2023-12-11T16:55:39.788Z,20.63
2023-12-11T16:58:08.033Z,17.98
2023-12-11T17:00:35.664Z,19.75
2023-12-11T17:03:03.053Z,21.50
2023-12-11T17:05:30.409Z,20.25
2023-12-11T17:07:58.944Z,13.10
2023-12-11T17:10:26.671Z,17.23
2023-12-11T17:12:54.084Z,15.25
2023-12-11T17:15:21.334Z,26.27
2023-12-11T17:17:48.673Z,28.23
2023-12-11T17:20:16.010Z,15.10
2023-12-11T17:22:43.397Z,45.10
2023-12-11T17:25:10.717Z,30.67
2023-12-11T17:27:38.036Z,39.67
2023-12-11T17:30:05.509Z,23.95
2023-12-11T17:32:33.317Z,33.73
2023-12-11T17:35:02.796Z,36.80
2023-12-11T17:37:30.412Z,23.27
2023-12-11T17:39:57.590Z,40.90
2023-12-11T17:42:27.156Z,47.33
2023-12-11T17:44:54.560Z,34.83
2023-12-11T17:47:21.971Z,36.22
2023-12-11T17:49:49.486Z,29.95
2023-12-11T17:52:16.991Z,29.98
2023-12-11T17:54:46.008Z,41.55
2023-12-11T17:57:13.264Z,20.87
2023-12-11T17:59:43.084Z,24.73
2023-12-11T18:02:11.261Z,29.33
2023-12-11T18:04:40.011Z,34.17
2023-12-11T18:07:07.723Z,26.98
2023-12-11T18:09:37.452Z,59.77
2023-12-11T18:12:05.707Z,31.88
2023-12-11T18:14:32.999Z,47.45
2023-12-11T18:17:00.255Z,17.40
2023-12-11T18:19:27.596Z,39.47
2023-12-11T18:21:56.770Z,23.50
2023-12-11T18:24:24.204Z,23.63
2023-12-11T18:26:51.411Z,42.17
2023-12-11T18:29:19.044Z,42.10
2023-12-11T18:31:46.318Z,27.05
2023-12-11T18:34:14.042Z,51.53
2023-12-11T18:36:44.807Z,37.05
2023-12-11T18:39:16.281Z,21.42
2023-12-11T18:41:43.783Z,33.97
2023-12-11T18:44:11.116Z,23.98
2023-12-11T18:46:39.484Z,59.07
2023-12-11T18:49:06.846Z,37.03
2023-12-11T18:51:33.746Z,49.13
2023-12-11T18:54:01.085Z,35.38
2023-12-11T18:56:28.402Z,26.05
2023-12-11T18:58:55.276Z,51.07
2023-12-11T19:01:22.459Z,38.72
2023-12-11T19:03:50.428Z,44.95
2023-12-11T19:06:18.139Z,25.30
2023-12-11T19:08:45.691Z,22.77
2023-12-11T19:11:13.672Z,23.53
2023-12-11T19:13:41.036Z,24.48
2023-12-11T19:16:09.321Z,25.60
2023-12-11T19:18:37.259Z,22.40
2023-12-11T19:21:04.615Z,25.75
2023-12-11T19:23:31.904Z,23.77
2023-12-11T19:25:59.855Z,28.10
2023-12-11T19:28:27.357Z,19.85
2023-12-11T19:30:54.850Z,20.67
2023-12-11T19:33:22.215Z,20.52
2023-12-11T19:35:50.822Z,38.23
2023-12-11T19:38:18.349Z,19.15
2023-12-11T19:40:45.633Z,20.13
2023-12-11T19:43:13.386Z,19.67
2023-12-11T19:45:40.397Z,18.33
2023-12-11T19:48:07.902Z,18.87
2023-12-11T19:50:35.175Z,18.63
2023-12-11T19:53:02.450Z,18.48
2023-12-11T19:55:29.790Z,15.88
2023-12-11T19:57:57.178Z,23.85
2023-12-11T20:00:24.417Z,17.73
2023-12-11T20:02:52.286Z,21.33
2023-12-11T20:05:19.809Z,20.50
2023-12-11T20:07:47.483Z,21.88
2023-12-11T20:10:16.532Z,19.13
2023-12-11T20:12:43.782Z,23.93
2023-12-11T20:15:12.049Z,21.50
2023-12-11T20:17:40.083Z,23.20
2023-12-11T20:20:10.485Z,24.83
2023-12-11T20:22:37.754Z,25.13
2023-12-11T20:25:05.350Z,23.70
2023-12-11T20:27:32.804Z,28.92
2023-12-11T20:30:00.542Z,29.30
2023-12-11T20:32:28.029Z,21.05
2023-12-11T20:34:55.278Z,26.88
2023-12-11T20:37:22.572Z,31.23
2023-12-11T20:39:49.412Z,30.45
2023-12-11T20:42:18.212Z,37.47
2023-12-11T20:44:45.461Z,31.10
2023-12-11T20:47:12.339Z,29.75
2023-12-11T20:49:39.695Z,27.10
2023-12-11T20:52:06.894Z,40.13
2023-12-11T20:54:34.287Z,29.63
2023-12-11T20:57:01.522Z,25.33
2023-12-11T20:59:28.773Z,28.85
2023-12-11T21:01:56.377Z,24.33
2023-12-11T21:04:23.848Z,23.30
2023-12-11T21:06:51.115Z,21.48
2023-12-11T21:09:18.454Z,28.63
2023-12-11T21:11:45.845Z,23.70
2023-12-11T21:14:13.181Z,30.57
2023-12-11T21:16:41.283Z,25.77
2023-12-11T21:19:08.752Z,20.63
2023-12-11T21:21:36.907Z,26.90
2023-12-11T21:24:04.303Z,23.88
2023-12-11T21:26:32.106Z,19.87
2023-12-11T21:29:00.402Z,17.75
2023-12-11T21:31:32.560Z,19.70
2023-12-11T21:34:00.452Z,17.48
2023-12-11T21:36:31.125Z,24.23
2023-12-11T21:38:58.941Z,15.33
2023-12-11T21:41:26.194Z,14.82
2023-12-11T21:43:53.904Z,17.23
2023-12-11T21:46:21.393Z,23.27
2023-12-11T21:48:49.972Z,16.63
2023-12-11T21:51:18.922Z,21.97
2023-12-11T21:53:47.504Z,16.92
2023-12-11T21:56:15.028Z,20.58
2023-12-11T21:58:42.514Z,10.13
2023-12-11T22:01:10.128Z,17.00
2023-12-11T22:03:37.296Z,16.43
2023-12-11T22:06:04.594Z,18.45
2023-12-11T22:08:31.908Z,19.02
2023-12-11T22:10:59.192Z,14.93
2023-12-11T22:13:26.616Z,17.88
2023-12-11T22:15:53.680Z,22.17
2023-12-11T22:18:20.836Z,15.75
2023-12-11T22:20:48.260Z,17.45
2023-12-11T22:23:15.213Z,15.10
2023-12-11T22:25:42.519Z,20.48
2023-12-11T22:28:09.844Z,16.17
2023-12-11T22:30:37.130Z,15.95
2023-12-11T22:33:04.613Z,16.02
2023-12-11T22:35:31.842Z,10.60
2023-12-11T22:37:59.249Z,18.15
2023-12-11T22:40:26.507Z,16.47
2023-12-11T22:42:53.858Z,13.75
2023-12-11T22:45:22.646Z,14.57
2023-12-11T22:47:50.277Z,14.90
2023-12-11T22:50:17.763Z,9.07
2023-12-11T22:52:45.148Z,14.27
2023-12-11T22:55:12.535Z,14.13
2023-12-11T22:57:41.329Z,13.13
2023-12-11T23:00:11.881Z,9.82
2023-12-11T23:02:38.891Z,16.05
2023-12-11T23:05:06.263Z,16.83
2023-12-11T23:07:34.427Z,25.73
2023-12-11T23:10:02.227Z,14.45
2023-12-11T23:12:29.520Z,15.13
2023-12-11T23:14:56.374Z,10.98
2023-12-11T23:17:23.700Z,11.27
2023-12-11T23:19:51.168Z,20.35
2023-12-11T23:22:18.684Z,13.48
2023-12-11T23:24:46.172Z,18.35
2023-12-11T23:27:13.428Z,16.92
2023-12-11T23:29:42.177Z,18.00
2023-12-11T23:32:13.052Z,13.73
2023-12-11T23:34:40.331Z,10.10
2023-12-11T23:37:07.710Z,16.92
2023-12-11T23:39:35.240Z,10.93
2023-12-11T23:42:02.537Z,10.40
2023-12-11T23:44:30.277Z,15.48
2023-12-11T23:46:57.532Z,12.20
2023-12-11T23:49:24.921Z,11.35
2023-12-11T23:51:52.263Z,15.32
2023-12-11T23:54:19.568Z,20.37
2023-12-11T23:56:46.886Z,19.83
2023-12-11T23:59:14.133Z,12.82
